createdAt,value
2024-05-09T00:00:47.366Z,24.40
2024-05-09T00:03:16.386Z,24.40
2024-05-09T00:05:45.207Z,24.60
2024-05-09T00:08:13.944Z,24.90
2024-05-09T00:10:42.213Z,25.00
2024-05-09T00:13:11.580Z,24.90
2024-05-09T00:15:40.248Z,24.80
2024-05-09T00:18:09.955Z,24.70
2024-05-09T00:20:40.834Z,24.60
2024-05-09T00:23:12.172Z,24.50
2024-05-09T00:25:45.138Z,24.80
2024-05-09T00:28:14.004Z,24.90
2024-05-09T00:30:42.048Z,25.00
2024-05-09T00:33:11.640Z,24.80
2024-05-09T00:35:40.584Z,24.80
2024-05-09T00:38:09.147Z,24.50
2024-05-09T00:40:40.786Z,24.50
2024-05-09T00:43:13.394Z,24.60
2024-05-09T00:45:43.795Z,24.80
2024-05-09T00:48:16.503Z,24.90
2024-05-09T00:50:47.908Z,25.00
2024-05-09T00:53:19.157Z,24.80
2024-05-09T00:55:48.014Z,24.70
2024-05-09T00:58:20.283Z,24.60
2024-05-09T01:00:52.545Z,24.60
2024-05-09T01:03:21.729Z,24.40
2024-05-09T01:05:50.844Z,24.70
2024-05-09T01:08:19.777Z,24.90
2024-05-09T01:10:48.871Z,25.10
2024-05-09T01:13:17.490Z,24.90
2024-05-09T01:15:46.017Z,24.70
2024-05-09T01:18:14.638Z,24.70
2024-05-09T01:20:45.109Z,24.50
2024-05-09T01:23:16.326Z,24.40
2024-05-09T01:25:46.369Z,24.50
2024-05-09T01:28:15.665Z,24.70
2024-05-09T01:30:44.137Z,24.90
2024-05-09T01:33:13.155Z,25.00
2024-05-09T01:35:43.012Z,24.80
2024-05-09T01:38:12.351Z,24.60
2024-05-09T01:40:40.791Z,24.50
2024-05-09T01:43:10.959Z,24.40
2024-05-09T01:45:41.299Z,24.50
2024-05-09T01:48:11.298Z,24.70
2024-05-09T01:50:42.525Z,24.90
2024-05-09T01:53:14.063Z,25.00
2024-05-09T01:55:43.686Z,24.80
2024-05-09T01:58:12.155Z,24.50
2024-05-09T02:00:42.624Z,24.50
2024-05-09T02:03:16.311Z,24.40
2024-05-09T02:05:48.055Z,24.50
2024-05-09T02:08:19.649Z,24.70
2024-05-09T02:10:50.459Z,25.00
2024-05-09T02:13:19.609Z,24.90
2024-05-09T02:15:47.636Z,24.80
2024-05-09T02:18:16.442Z,24.70
2024-05-09T02:20:45.093Z,24.60
2024-05-09T02:23:13.349Z,24.50
2024-05-09T02:25:44.678Z,24.60
2024-05-09T02:28:13.295Z,24.80
2024-05-09T02:30:42.602Z,24.90
2024-05-09T02:33:13.481Z,25.00
2024-05-09T02:35:44.215Z,24.90
2024-05-09T02:38:19.086Z,24.70
2024-05-09T02:40:47.695Z,24.60
2024-05-09T02:43:16.271Z,24.50
2024-05-09T02:45:44.475Z,24.70
2024-05-09T02:48:14.268Z,24.80
2024-05-09T02:50:43.336Z,25.00
2024-05-09T02:53:14.927Z,24.80
2024-05-09T02:55:43.729Z,24.70
2024-05-09T02:58:12.527Z,24.60
2024-05-09T03:00:42.849Z,24.50
2024-05-09T03:03:14.557Z,24.50
2024-05-09T03:05:45.482Z,24.70
2024-05-09T03:08:14.466Z,24.80
2024-05-09T03:10:43.403Z,25.00
2024-05-09T03:13:15.485Z,24.70
2024-05-09T03:15:45.456Z,24.50
2024-05-09T03:18:14.171Z,24.50
2024-05-09T03:20:42.954Z,24.50
2024-05-09T03:23:11.313Z,24.50
2024-05-09T03:25:40.163Z,24.80
2024-05-09T03:28:08.173Z,25.00
2024-05-09T03:30:41.721Z,25.10
2024-05-09T03:33:16.095Z,24.90
2024-05-09T03:35:45.019Z,24.70
2024-05-09T03:38:13.245Z,24.60
2024-05-09T03:40:51.443Z,24.50
2024-05-09T03:43:20.652Z,24.40
2024-05-09T03:45:50.406Z,24.40
2024-05-09T03:48:19.241Z,24.60
2024-05-09T03:50:48.176Z,24.80
2024-05-09T03:53:17.230Z,24.90
2024-05-09T03:55:48.645Z,24.70
2024-05-09T03:58:17.229Z,24.50
2024-05-09T04:00:45.633Z,24.40
2024-05-09T04:03:14.506Z,24.40
2024-05-09T04:05:44.060Z,24.40
2024-05-09T04:08:15.403Z,24.70
2024-05-09T04:10:44.368Z,24.80
2024-05-09T04:13:12.771Z,25.00
2024-05-09T04:15:41.426Z,24.80
2024-05-09T04:18:10.003Z,24.70
2024-05-09T04:20:40.861Z,24.60
2024-05-09T04:23:14.588Z,24.50
2024-05-09T04:25:45.427Z,24.50
2024-05-09T04:28:14.869Z,24.70
2024-05-09T04:30:43.749Z,24.90
2024-05-09T04:33:14.034Z,24.90
2024-05-09T04:35:44.574Z,24.70
2024-05-09T04:38:14.793Z,24.60
2024-05-09T04:40:44.305Z,24.40
2024-05-09T04:43:17.149Z,24.50
2024-05-09T04:45:46.282Z,24.70
2024-05-09T04:48:14.868Z,24.90
2024-05-09T04:50:43.695Z,25.00
2024-05-09T04:53:17.046Z,24.80
2024-05-09T04:55:46.109Z,24.60
2024-05-09T04:58:14.608Z,24.60
2024-05-09T05:00:44.203Z,24.50
2024-05-09T05:03:15.498Z,24.60
2024-05-09T05:05:46.255Z,24.80
2024-05-09T05:08:17.229Z,25.00
2024-05-09T05:10:48.106Z,24.90
2024-05-09T05:13:18.595Z,24.90
2024-05-09T05:15:48.539Z,24.60
2024-05-09T05:18:17.120Z,24.40
2024-05-09T05:20:46.197Z,24.50
2024-05-09T05:23:16.906Z,24.70
2024-05-09T05:25:46.228Z,24.90
2024-05-09T05:28:16.308Z,25.00
2024-05-09T05:30:45.200Z,24.70
2024-05-09T05:33:16.082Z,24.60
2024-05-09T05:35:45.125Z,24.50
2024-05-09T05:38:13.692Z,24.50
2024-05-09T05:40:42.139Z,24.60
2024-05-09T05:43:16.519Z,24.80
2024-05-09T05:45:45.627Z,24.90
2024-05-09T05:48:14.926Z,24.80
2024-05-09T05:50:44.307Z,24.70
2024-05-09T05:53:13.144Z,24.50
2024-05-09T05:55:41.877Z,24.40
2024-05-09T05:58:13.409Z,24.40
2024-05-09T06:00:43.015Z,24.70
2024-05-09T06:03:15.445Z,24.90
2024-05-09T06:05:44.603Z,25.00
2024-05-09T06:08:13.538Z,24.70
2024-05-09T06:10:42.206Z,24.60
2024-05-09T06:13:11.860Z,24.40
2024-05-09T06:15:41.644Z,24.50
2024-05-09T06:18:12.126Z,24.60
2024-05-09T06:20:43.615Z,24.80
2024-05-09T06:23:13.448Z,24.90
2024-05-09T06:25:42.489Z,25.00
2024-05-09T06:28:11.773Z,24.70
2024-05-09T06:30:42.022Z,24.50
2024-05-09T06:33:14.457Z,24.40
2024-05-09T06:35:45.303Z,24.30
2024-05-09T06:38:13.970Z,24.50
2024-05-09T06:40:44.040Z,24.70
2024-05-09T06:43:15.556Z,24.80
2024-05-09T06:45:46.042Z,24.80
2024-05-09T06:48:14.527Z,24.70
2024-05-09T06:50:43.303Z,24.60
2024-05-09T06:53:15.351Z,24.40
2024-05-09T06:55:44.043Z,24.30
2024-05-09T06:58:12.196Z,24.50
2024-05-09T07:00:42.000Z,24.70
2024-05-09T07:03:14.157Z,24.90
2024-05-09T07:05:46.650Z,25.00
2024-05-09T07:08:16.730Z,24.60
2024-05-09T07:10:45.652Z,24.60
2024-05-09T07:13:15.479Z,24.50
2024-05-09T07:15:44.454Z,24.50
2024-05-09T07:18:14.356Z,24.60
2024-05-09T07:20:43.286Z,24.80
2024-05-09T07:23:12.095Z,24.80
2024-05-09T07:25:42.079Z,24.80
2024-05-09T07:28:16.401Z,24.70
2024-05-09T07:30:45.258Z,24.50
2024-05-09T07:33:21.362Z,24.50
2024-05-09T07:35:51.572Z,24.50
2024-05-09T07:38:20.414Z,24.40
2024-05-09T07:40:48.687Z,24.30
2024-05-09T07:43:17.296Z,24.30
2024-05-09T07:45:52.615Z,24.30
2024-05-09T07:52:39.321Z,24.10
2024-05-09T07:53:49.963Z,24.20
2024-05-09T07:56:23.143Z,24.50
2024-05-09T07:58:53.802Z,24.60
2024-05-09T08:01:22.711Z,24.60
2024-05-09T08:03:51.474Z,24.50
2024-05-09T08:06:20.238Z,24.40
2024-05-09T08:08:49.189Z,24.30
2024-05-09T08:11:17.921Z,24.30
2024-05-09T08:13:46.076Z,24.40
2024-05-09T08:16:15.447Z,24.60
2024-05-09T08:18:43.971Z,24.80
2024-05-09T08:21:12.126Z,24.70
2024-05-09T08:23:40.582Z,24.50
2024-05-09T08:26:09.327Z,24.40
2024-05-09T08:28:37.658Z,24.40
2024-05-09T08:31:07.250Z,24.30
2024-05-09T08:33:36.734Z,24.30
2024-05-09T08:36:05.399Z,24.50
2024-05-09T08:38:33.669Z,24.70
2024-05-09T08:41:04.878Z,24.80
2024-05-09T08:43:33.698Z,24.80
2024-05-09T08:46:04.812Z,24.60
2024-05-09T08:48:37.744Z,24.50
2024-05-09T08:51:07.332Z,24.30
2024-05-09T08:53:36.322Z,24.30
2024-05-09T08:56:06.316Z,24.20
2024-05-09T08:58:36.658Z,24.20
2024-05-09T09:01:08.599Z,24.40
2024-05-09T09:03:38.329Z,24.60
2024-05-09T09:06:09.207Z,24.80
2024-05-09T09:08:40.152Z,24.60
2024-05-09T09:11:08.645Z,24.50
2024-05-09T09:13:37.028Z,24.40
2024-05-09T09:16:06.143Z,24.30
2024-05-09T09:18:35.091Z,24.20
2024-05-09T09:21:04.391Z,24.30
2024-05-09T09:23:32.493Z,24.40
2024-05-09T09:26:01.489Z,24.60
2024-05-09T09:28:30.286Z,24.80
2024-05-09T09:31:02.120Z,24.80
2024-05-09T09:33:30.986Z,24.50
2024-05-09T09:35:59.893Z,24.40
2024-05-09T09:38:32.005Z,24.30
2024-05-09T09:41:02.139Z,24.20
2024-05-09T09:43:34.512Z,24.20
2024-05-09T09:46:03.170Z,24.40
2024-05-09T09:48:32.171Z,24.60
2024-05-09T09:51:02.917Z,24.70
2024-05-09T09:53:34.039Z,24.60
2024-05-09T09:56:04.050Z,24.50
2024-05-09T09:58:35.508Z,24.40
2024-05-09T10:01:04.344Z,24.20
2024-05-09T10:03:32.809Z,24.10
2024-05-09T10:06:03.209Z,24.10
2024-05-09T10:08:32.048Z,24.20
2024-05-09T10:11:04.268Z,24.30
2024-05-09T10:13:35.964Z,24.60
2024-05-09T10:16:09.246Z,24.70
2024-05-09T10:18:39.461Z,24.60
2024-05-09T10:21:21.536Z,24.40
2024-05-09T10:24:06.366Z,24.10
2024-05-09T10:26:39.864Z,24.20
2024-05-09T10:29:18.357Z,24.20
2024-05-09T10:31:47.269Z,24.10
2024-05-09T10:34:19.683Z,24.10
2024-05-09T10:36:56.032Z,24.00
2024-05-09T10:39:26.558Z,24.00
2024-05-09T10:41:55.218Z,23.90
2024-05-09T10:44:23.552Z,23.80
2024-05-09T10:46:52.247Z,23.90
2024-05-09T10:49:20.808Z,23.80
2024-05-09T10:51:49.837Z,24.00
2024-05-09T10:54:18.352Z,24.20
2024-05-09T10:56:46.924Z,24.40
2024-05-09T10:59:15.283Z,24.60
2024-05-09T11:01:44.353Z,24.50
2024-05-09T11:04:14.582Z,24.40
2024-05-09T11:06:43.566Z,24.30
2024-05-09T11:09:11.709Z,24.20
2024-05-09T11:11:40.479Z,24.10
2024-05-09T11:14:14.986Z,24.00
2024-05-09T11:16:43.676Z,24.10
2024-05-09T11:19:15.912Z,24.00
2024-05-09T11:21:44.628Z,24.00
2024-05-09T11:24:13.273Z,24.00
2024-05-09T11:26:41.702Z,23.90
2024-05-09T11:29:10.085Z,23.90
2024-05-09T11:31:50.821Z,23.90
2024-05-09T11:34:19.381Z,23.80
2024-05-09T11:36:47.600Z,23.80
2024-05-09T11:39:16.105Z,23.80
2024-05-09T11:41:44.599Z,23.80
2024-05-09T11:44:12.956Z,23.80
2024-05-09T11:46:41.665Z,23.80
2024-05-09T11:49:10.267Z,23.70
2024-05-09T11:51:39.237Z,23.70
2024-05-09T11:54:07.803Z,23.80
2024-05-09T11:56:36.330Z,23.80
2024-05-09T11:59:04.862Z,23.80
2024-05-09T12:01:33.769Z,23.80
2024-05-09T12:04:02.448Z,23.80
2024-05-09T12:06:31.323Z,23.90
2024-05-09T12:08:59.848Z,23.90
2024-05-09T12:11:28.333Z,23.90
2024-05-09T12:13:56.758Z,23.90
2024-05-09T12:16:26.112Z,23.70
2024-05-09T12:18:54.951Z,23.80
2024-05-09T12:21:23.056Z,23.70
2024-05-09T12:23:51.941Z,23.90
2024-05-09T12:26:20.048Z,24.00
2024-05-09T12:28:48.516Z,24.20
2024-05-09T12:31:17.126Z,24.40
2024-05-09T12:33:46.332Z,24.50
2024-05-09T12:36:14.787Z,24.20
2024-05-09T12:38:43.391Z,24.20
2024-05-09T12:41:11.725Z,24.10
2024-05-09T12:43:40.262Z,24.00
2024-05-09T12:46:08.860Z,24.10
2024-05-09T12:48:37.305Z,23.90
2024-05-09T12:51:06.034Z,24.00
2024-05-09T12:53:36.719Z,23.90
2024-05-09T12:56:06.664Z,23.90
2024-05-09T12:58:36.905Z,23.90
2024-05-09T13:01:05.062Z,23.90
2024-05-09T13:03:33.787Z,23.80
2024-05-09T13:06:02.747Z,23.90
2024-05-09T13:08:30.786Z,23.90
2024-05-09T13:10:59.584Z,23.90
2024-05-09T13:13:27.848Z,23.90
2024-05-09T13:15:56.113Z,23.90
2024-05-09T13:18:24.392Z,23.90
2024-05-09T13:20:52.637Z,24.00
2024-05-09T13:23:20.698Z,24.20
2024-05-09T13:25:50.230Z,24.40
2024-05-09T13:28:18.463Z,24.60
2024-05-09T13:30:46.582Z,24.50
2024-05-09T13:33:15.212Z,24.40
2024-05-09T13:35:47.493Z,24.20
2024-05-09T13:38:20.018Z,24.20
2024-05-09T13:40:49.051Z,24.00
2024-05-09T13:43:17.928Z,24.10
2024-05-09T13:45:46.535Z,24.20
2024-05-09T13:48:15.180Z,24.20
2024-05-09T13:50:43.517Z,24.10
2024-05-09T13:53:11.758Z,24.10
2024-05-09T13:55:41.017Z,24.10
2024-05-09T13:58:09.913Z,24.00
2024-05-09T14:00:44.931Z,24.10
2024-05-09T14:03:19.141Z,24.10
2024-05-09T14:05:49.360Z,24.20
2024-05-09T14:08:18.024Z,24.10
2024-05-09T14:10:46.961Z,24.10
2024-05-09T14:13:16.121Z,24.00
2024-05-09T14:15:44.580Z,24.00
2024-05-09T14:18:14.176Z,24.00
2024-05-09T14:20:43.577Z,24.10
2024-05-09T14:23:11.954Z,24.00
2024-05-09T14:25:42.474Z,24.10
2024-05-09T14:28:13.173Z,24.00
2024-05-09T14:30:42.779Z,24.00
2024-05-09T14:33:11.679Z,24.10
2024-05-09T14:35:39.949Z,24.00
2024-05-09T14:38:09.156Z,24.00
2024-05-09T14:40:42.327Z,24.00
2024-05-09T14:43:13.453Z,24.00
2024-05-09T14:45:42.615Z,23.90
2024-05-09T14:48:11.972Z,24.00
2024-05-09T14:50:40.969Z,24.00
2024-05-09T14:53:10.594Z,23.90
2024-05-09T14:55:41.131Z,24.00
2024-05-09T14:58:11.187Z,24.00
2024-05-09T15:00:44.088Z,24.00
2024-05-09T15:03:15.222Z,24.00
2024-05-09T15:05:43.538Z,24.00
2024-05-09T15:08:11.715Z,23.90
2024-05-09T15:10:40.015Z,24.20
2024-05-09T15:13:10.358Z,24.50
2024-05-09T15:15:40.494Z,24.60
2024-05-09T15:18:08.885Z,24.60
2024-05-09T15:20:37.905Z,24.60
2024-05-09T15:23:07.314Z,24.40
2024-05-09T15:25:36.673Z,24.40
2024-05-09T15:28:06.473Z,24.30
2024-05-09T15:30:35.155Z,24.30
2024-05-09T15:33:05.020Z,24.30
2024-05-09T15:35:34.455Z,24.20
2024-05-09T15:38:03.662Z,24.10
2024-05-09T15:40:38.974Z,24.20
2024-05-09T15:43:10.856Z,24.10
2024-05-09T15:45:41.049Z,24.20
2024-05-09T15:48:10.846Z,24.20
2024-05-09T15:50:41.810Z,24.20
2024-05-09T15:53:13.055Z,24.20
2024-05-09T15:55:42.613Z,24.30
2024-05-09T15:58:11.217Z,24.20
2024-05-09T16:00:42.396Z,24.20
2024-05-09T16:03:13.540Z,24.20
2024-05-09T16:05:46.973Z,24.20
2024-05-09T16:08:16.460Z,24.10
2024-05-09T16:10:45.964Z,24.20
2024-05-09T16:13:15.770Z,24.20
2024-05-09T16:15:44.578Z,24.20
2024-05-09T16:18:13.241Z,24.20
2024-05-09T16:20:43.507Z,24.20
2024-05-09T16:23:13.118Z,24.20
2024-05-09T16:25:41.250Z,24.30
2024-05-09T16:28:10.807Z,24.10
2024-05-09T16:30:40.290Z,24.20
2024-05-09T16:33:09.515Z,24.10
2024-05-09T16:35:38.081Z,24.00
2024-05-09T16:38:06.788Z,24.10
2024-05-09T16:40:39.161Z,24.00
2024-05-09T16:43:13.534Z,24.00
2024-05-09T16:45:42.789Z,24.00
2024-05-09T16:48:11.294Z,24.00
2024-05-09T16:50:39.383Z,24.00
2024-05-09T16:53:07.722Z,24.00
2024-05-09T16:55:36.748Z,23.90
2024-05-09T16:58:05.548Z,24.00
2024-05-09T17:00:40.659Z,24.00
2024-05-09T17:03:13.496Z,24.20
2024-05-09T17:05:43.544Z,24.40
2024-05-09T17:08:11.794Z,24.60
2024-05-09T17:10:40.012Z,24.50
2024-05-09T17:13:08.605Z,24.50
2024-05-09T17:15:37.804Z,24.40
2024-05-09T17:18:07.389Z,24.20
2024-05-09T17:20:37.571Z,24.30
2024-05-09T17:23:06.705Z,24.20
2024-05-09T17:25:34.880Z,24.20
2024-05-09T17:28:03.151Z,24.20
2024-05-09T17:30:35.663Z,24.20
2024-05-09T17:33:06.735Z,24.20
2024-05-09T17:35:35.960Z,24.20
2024-05-09T17:38:05.161Z,24.10
2024-05-09T17:40:36.148Z,24.10
2024-05-09T17:43:07.995Z,24.10
2024-05-09T17:45:38.125Z,24.00
2024-05-09T17:48:06.588Z,24.10
2024-05-09T17:50:37.195Z,24.10
2024-05-09T17:53:06.619Z,24.00
2024-05-09T17:55:35.711Z,24.10
2024-05-09T17:58:05.863Z,24.10
2024-05-09T18:00:39.108Z,24.10
2024-05-09T18:03:13.201Z,24.00
2024-05-09T18:05:43.306Z,24.00
2024-05-09T18:08:13.087Z,24.00
2024-05-09T18:10:41.861Z,24.00
2024-05-09T18:13:11.294Z,24.00
2024-05-09T18:15:40.360Z,24.00
2024-05-09T18:18:09.200Z,24.20
2024-05-09T18:20:43.317Z,24.40
2024-05-09T18:23:16.385Z,24.60
2024-05-09T18:25:46.300Z,24.50
2024-05-09T18:28:14.886Z,24.50
2024-05-09T18:30:43.370Z,24.40
2024-05-09T18:33:12.184Z,24.30
2024-05-09T18:35:44.228Z,24.20
2024-05-09T18:38:12.506Z,24.10
2024-05-09T18:40:42.694Z,24.00
2024-05-09T18:43:12.367Z,24.20
2024-05-09T18:45:48.403Z,24.20
2024-05-09T18:48:16.701Z,24.20
2024-05-09T18:50:44.891Z,24.30
2024-05-09T18:53:13.760Z,24.10
2024-05-09T18:55:42.787Z,24.00
2024-05-09T18:58:11.087Z,24.00
2024-05-09T19:00:41.760Z,24.00
2024-05-09T19:03:14.153Z,24.10
2024-05-09T19:05:44.678Z,24.10
2024-05-09T19:08:14.407Z,24.00
2024-05-09T19:10:43.798Z,24.10
2024-05-09T19:13:13.777Z,24.30
2024-05-09T19:15:43.754Z,24.60
2024-05-09T19:18:13.670Z,24.60
2024-05-09T19:20:42.786Z,24.50
2024-05-09T19:23:10.999Z,24.20
2024-05-09T19:25:39.231Z,24.20
2024-05-09T19:28:07.669Z,24.30
2024-05-09T19:30:40.296Z,24.10
2024-05-09T19:33:12.570Z,24.30
2024-05-09T19:35:42.256Z,24.50
2024-05-09T19:38:10.293Z,24.70
2024-05-09T19:40:38.586Z,24.90
2024-05-09T19:43:06.999Z,24.60
2024-05-09T19:45:36.276Z,24.40
2024-05-09T19:48:06.107Z,24.30
2024-05-09T19:50:41.583Z,24.10
2024-05-09T19:53:15.706Z,24.40
2024-05-09T19:55:44.099Z,24.60
2024-05-09T19:58:12.919Z,24.80
2024-05-09T20:00:43.422Z,24.90
2024-05-09T20:03:13.778Z,24.60
2024-05-09T20:05:46.646Z,24.40
2024-05-09T20:08:15.658Z,24.30
2024-05-09T20:10:43.834Z,24.20
2024-05-09T20:13:12.058Z,24.40
2024-05-09T20:15:40.422Z,24.60
2024-05-09T20:18:08.899Z,24.80
2024-05-09T20:20:41.279Z,24.90
2024-05-09T20:23:12.347Z,24.60
2024-05-09T20:25:40.928Z,24.40
2024-05-09T20:28:09.219Z,24.20
2024-05-09T20:30:37.756Z,24.10
2024-05-09T20:33:07.641Z,24.40
2024-05-09T20:35:37.146Z,24.60
2024-05-09T20:38:05.925Z,24.90
2024-05-09T20:40:37.618Z,24.90
2024-05-09T20:43:08.766Z,24.50
2024-05-09T20:45:37.291Z,24.30
2024-05-09T20:48:05.871Z,24.10
2024-05-09T20:50:39.310Z,24.20
2024-05-09T20:53:10.626Z,24.50
2024-05-09T20:55:38.753Z,24.70
2024-05-09T20:58:06.943Z,24.90
2024-05-09T21:00:40.031Z,24.70
2024-05-09T21:03:12.446Z,24.30
2024-05-09T21:05:44.986Z,24.30
2024-05-09T21:08:13.458Z,24.10
2024-05-09T21:10:41.651Z,24.40
2024-05-09T21:13:10.031Z,24.70
2024-05-09T21:15:38.465Z,24.80
2024-05-09T21:18:06.739Z,25.00
2024-05-09T21:20:35.399Z,24.60
2024-05-09T21:23:04.188Z,24.40
2024-05-09T21:25:32.667Z,24.30
2024-05-09T21:28:01.512Z,24.20
2024-05-09T21:30:38.589Z,24.50
2024-05-09T21:33:12.439Z,24.70
2024-05-09T21:35:42.582Z,24.90
2024-05-09T21:38:10.906Z,24.90
2024-05-09T21:40:39.249Z,24.80
2024-05-09T21:43:08.083Z,24.40
2024-05-09T21:45:37.375Z,24.30
2024-05-09T21:48:06.874Z,24.20
2024-05-09T21:50:40.007Z,24.40
2024-05-09T21:53:13.887Z,24.80
2024-05-09T21:55:43.329Z,25.10
2024-05-09T21:58:14.820Z,25.30
2024-05-09T22:00:43.513Z,25.50
2024-05-09T22:03:12.585Z,25.60
2024-05-09T22:05:41.006Z,25.70
2024-05-09T22:08:09.522Z,25.80
2024-05-09T22:10:37.798Z,25.90
2024-05-09T22:13:08.686Z,25.90
2024-05-09T22:15:39.961Z,26.00
2024-05-09T22:18:10.337Z,26.00
2024-05-09T22:20:40.054Z,26.00
2024-05-09T22:23:09.057Z,26.10
2024-05-09T22:25:37.870Z,26.10
2024-05-09T22:28:07.422Z,26.20
2024-05-09T22:30:41.141Z,26.20
2024-05-09T22:33:11.164Z,26.30
2024-05-09T22:35:41.370Z,26.30
2024-05-09T22:38:09.688Z,26.30
2024-05-09T22:40:46.246Z,26.30
2024-05-09T22:43:18.588Z,26.30
2024-05-09T22:45:49.722Z,26.30
2024-05-09T22:48:19.088Z,26.30
2024-05-09T22:50:47.623Z,26.40
2024-05-09T22:53:15.705Z,26.40
2024-05-09T22:55:44.119Z,26.40
2024-05-09T22:58:12.591Z,26.50
2024-05-09T23:00:40.962Z,26.50
2024-05-09T23:03:09.392Z,26.50
2024-05-09T23:05:37.967Z,26.50
2024-05-09T23:08:06.446Z,26.50
2024-05-09T23:10:37.290Z,26.50
2024-05-09T23:13:08.034Z,26.50
2024-05-09T23:15:37.462Z,26.60
2024-05-09T23:18:06.267Z,26.60
2024-05-09T23:20:38.507Z,26.60
2024-05-09T23:23:10.020Z,26.60
2024-05-09T23:25:39.725Z,26.60
2024-05-09T23:28:08.173Z,26.70
2024-05-09T23:30:39.656Z,26.60
2024-05-09T23:33:14.041Z,26.70
2024-05-09T23:35:43.271Z,26.70
2024-05-09T23:38:11.634Z,26.80
2024-05-09T23:40:41.544Z,26.80
2024-05-09T23:43:12.386Z,26.70
2024-05-09T23:45:41.802Z,26.80
2024-05-09T23:48:10.545Z,26.80
2024-05-09T23:50:42.223Z,26.80
2024-05-09T23:53:17.459Z,26.80
2024-05-09T23:55:46.072Z,26.80
2024-05-09T23:58:14.264Z,26.80
